createdAt,value
2023-01-11T00:02:03.935Z,3.50
2023-01-11T00:04:30.850Z,3.10
2023-01-11T00:06:57.598Z,3.60
2023-01-11T00:09:24.319Z,3.50
2023-01-11T00:11:50.985Z,3.70
2023-01-11T00:14:17.656Z,3.70
2023-01-11T00:16:44.376Z,5.00
2023-01-11T00:19:11.046Z,3.80
2023-01-11T00:21:37.760Z,3.90
2023-01-11T00:24:04.643Z,4.00
2023-01-11T00:26:31.203Z,4.00
2023-01-11T00:28:57.784Z,3.90
2023-01-11T00:31:24.421Z,3.90
2023-01-11T00:33:51.119Z,3.70
2023-01-11T00:36:17.776Z,3.90
2023-01-11T00:38:46.649Z,3.70
2023-01-11T00:41:33.041Z,3.80
2023-01-11T00:44:18.375Z,3.80
2023-01-11T00:47:03.545Z,3.80
2023-01-11T00:49:30.162Z,3.70
2023-01-11T00:51:56.932Z,3.70
2023-01-11T00:54:23.565Z,3.70
2023-01-11T00:56:50.215Z,3.60
2023-01-11T00:59:16.808Z,3.40
2023-01-11T01:01:43.492Z,3.60
2023-01-11T01:04:11.323Z,3.60
2023-01-11T01:06:38.033Z,3.80
2023-01-11T01:09:04.647Z,3.70
2023-01-11T01:11:31.488Z,3.70
2023-01-11T01:14:16.794Z,3.50
2023-01-11T01:16:46.414Z,3.60
2023-01-11T01:19:13.577Z,3.70
2023-01-11T01:21:40.455Z,5.00
2023-01-11T01:24:07.149Z,3.70
2023-01-11T01:26:33.809Z,3.80
2023-01-11T01:29:00.399Z,3.70
2023-01-11T01:31:27.612Z,3.30
2023-01-11T01:33:54.500Z,3.00
2023-01-11T01:36:21.428Z,3.40
2023-01-11T01:38:48.506Z,3.40
2023-01-11T01:41:15.580Z,3.70
2023-01-11T01:43:47.505Z,4.60
2023-01-11T01:46:14.767Z,3.70
2023-01-11T01:48:42.488Z,3.30
2023-01-11T01:51:10.354Z,3.50
2023-01-11T01:53:42.144Z,3.40
2023-01-11T01:56:11.568Z,3.80
2023-01-11T01:58:50.841Z,3.90
2023-01-11T02:01:36.375Z,5.30
2023-01-11T02:04:09.877Z,3.60
2023-01-11T02:06:36.802Z,3.70
2023-01-11T02:09:07.030Z,3.70
2023-01-11T02:11:34.456Z,4.50
2023-01-11T02:14:02.915Z,3.50
2023-01-11T02:16:29.787Z,3.20
2023-01-11T02:18:57.584Z,3.50
2023-01-11T02:21:36.705Z,3.10
2023-01-11T02:24:06.266Z,3.80
2023-01-11T02:26:59.274Z,3.80
2023-01-11T02:29:25.836Z,4.00
2023-01-11T02:35:35.321Z,3.70
2023-01-11T02:38:21.745Z,3.90
2023-01-11T02:40:48.629Z,4.60
2023-01-11T02:43:37.026Z,4.10
2023-01-11T02:46:10.985Z,4.00
2023-01-11T02:48:43.630Z,4.00
2023-01-11T02:51:10.515Z,4.00
2023-01-11T02:53:49.481Z,3.70
2023-01-11T02:56:18.594Z,4.10
2023-01-11T02:58:46.839Z,3.40
2023-01-11T03:01:14.104Z,4.50
2023-01-11T03:03:43.085Z,3.80
2023-01-11T03:06:18.174Z,3.60
2023-01-11T03:08:45.095Z,4.10
2023-01-11T03:11:15.459Z,4.30
2023-01-11T03:13:45.216Z,3.80
2023-01-11T03:18:47.921Z,4.10
2023-01-11T03:21:20.487Z,4.00
2023-01-11T03:24:12.194Z,4.10
2023-01-11T03:26:52.979Z,4.10
2023-01-11T03:29:38.900Z,4.00
2023-01-11T03:32:14.458Z,4.10
2023-01-11T03:35:05.560Z,4.00
2023-01-11T03:37:44.435Z,4.10
2023-01-11T03:40:21.279Z,4.50
2023-01-11T03:43:08.342Z,3.90
2023-01-11T03:45:37.560Z,3.80
2023-01-11T03:48:05.685Z,3.70
2023-01-11T03:50:33.330Z,3.90
2023-01-11T03:53:00.612Z,3.80
2023-01-11T03:55:29.679Z,3.50
2023-01-11T03:57:58.201Z,3.30
2023-01-11T04:00:26.476Z,3.60
2023-01-11T04:02:54.308Z,3.60
2023-01-11T04:05:21.494Z,3.80
2023-01-11T04:07:48.732Z,4.10
2023-01-11T04:10:16.050Z,4.30
2023-01-11T04:12:43.175Z,4.00
2023-01-11T04:15:10.236Z,3.80
2023-01-11T04:17:36.884Z,4.00
2023-01-11T04:20:04.011Z,3.60
2023-01-11T04:22:30.594Z,4.10
2023-01-11T04:24:58.383Z,4.60
2023-01-11T04:27:24.997Z,3.00
2023-01-11T04:29:51.727Z,3.60
2023-01-11T04:32:18.315Z,3.40
2023-01-11T04:34:44.912Z,3.80
2023-01-11T04:40:12.905Z,4.00
2023-01-11T04:42:39.493Z,3.70
2023-01-11T04:45:06.680Z,3.70
2023-01-11T04:47:33.259Z,4.10
2023-01-11T04:50:12.029Z,3.90
2023-01-11T04:52:40.652Z,3.80
2023-01-11T04:55:10.391Z,3.90
2023-01-11T05:00:08.712Z,4.20
2023-01-11T05:02:50.706Z,4.10
2023-01-11T05:05:17.249Z,4.10
2023-01-11T05:07:44.113Z,4.10
2023-01-11T05:10:11.207Z,4.10
2023-01-11T05:12:37.820Z,4.20
2023-01-11T05:15:05.071Z,4.20
2023-01-11T05:17:34.465Z,4.20
2023-01-11T05:20:02.085Z,4.20
2023-01-11T05:22:28.658Z,4.20
2023-01-11T05:24:55.192Z,4.20
2023-01-11T05:27:21.727Z,4.20
2023-01-11T05:29:48.265Z,4.20
2023-01-11T05:32:14.814Z,4.30
2023-01-11T05:34:41.340Z,4.30
2023-01-11T05:37:07.908Z,4.20
2023-01-11T05:39:34.674Z,4.20
2023-01-11T05:42:01.228Z,4.30
2023-01-11T05:44:46.415Z,4.20
2023-01-11T05:47:13.077Z,4.10
2023-01-11T05:52:06.664Z,4.40
2023-01-11T05:54:33.226Z,4.40
2023-01-11T05:56:59.848Z,4.50
2023-01-11T05:59:26.857Z,4.40
2023-01-11T06:01:53.543Z,4.30
2023-01-11T06:04:20.352Z,4.40
2023-01-11T06:06:47.017Z,4.50
2023-01-11T06:09:13.692Z,4.50
2023-01-11T06:11:40.372Z,4.50
2023-01-11T06:14:07.080Z,4.40
2023-01-11T06:16:33.731Z,4.40
2023-01-11T06:19:00.348Z,4.50
2023-01-11T06:21:27.104Z,4.50
2023-01-11T06:23:53.918Z,4.50
2023-01-11T06:26:21.901Z,4.60
2023-01-11T06:28:48.641Z,4.70
2023-01-11T06:31:17.579Z,4.60
2023-01-11T06:33:45.173Z,4.60
2023-01-11T06:36:13.023Z,4.80
2023-01-11T06:38:39.895Z,4.80
2023-01-11T06:41:08.408Z,4.70
2023-01-11T06:43:35.941Z,4.70
2023-01-11T06:46:02.578Z,4.80
2023-01-11T06:48:29.281Z,4.80
2023-01-11T06:50:57.194Z,4.60
2023-01-11T06:53:26.685Z,4.70
2023-01-11T06:55:55.390Z,4.60
2023-01-11T06:58:23.827Z,4.60
2023-01-11T07:00:54.452Z,4.70
2023-01-11T07:03:23.930Z,4.90
2023-01-11T07:08:17.700Z,5.00
2023-01-11T07:10:44.263Z,5.00
2023-01-11T07:13:11.252Z,4.90
2023-01-11T07:15:37.971Z,4.90
2023-01-11T07:18:04.643Z,4.90
2023-01-11T07:20:31.404Z,5.80
2023-01-11T07:22:59.358Z,4.90
2023-01-11T07:25:27.778Z,5.10
2023-01-11T07:28:01.828Z,5.10
2023-01-11T07:30:29.589Z,5.20
2023-01-11T07:32:59.721Z,4.80
2023-01-11T07:35:28.879Z,5.10
2023-01-11T07:40:22.789Z,5.40
2023-01-11T07:43:08.807Z,5.00
2023-01-11T07:45:45.265Z,6.10
2023-01-11T07:48:13.241Z,5.40
2023-01-11T07:50:42.246Z,5.50
2023-01-11T07:53:10.069Z,5.60
2023-01-11T07:55:37.850Z,5.50
2023-01-11T07:58:04.464Z,5.30
2023-01-11T08:00:31.141Z,5.20
2023-01-11T08:02:57.967Z,5.50
2023-01-11T08:05:25.058Z,5.40
2023-01-11T08:07:51.706Z,5.60
2023-01-11T08:10:18.520Z,5.40
2023-01-11T08:13:04.919Z,5.60
2023-01-11T08:15:32.543Z,5.60
2023-01-11T08:17:59.291Z,5.30
2023-01-11T08:20:27.089Z,5.40
2023-01-11T08:22:53.934Z,5.40
2023-01-11T08:25:20.869Z,5.50
2023-01-11T08:27:47.504Z,5.70
2023-01-11T08:30:14.580Z,5.80
2023-01-11T08:32:41.238Z,5.80
2023-01-11T08:35:09.800Z,5.80
2023-01-11T08:37:36.474Z,5.90
2023-01-11T08:40:03.287Z,5.60
2023-01-11T08:42:29.943Z,6.70
2023-01-11T08:44:56.577Z,5.90
2023-01-11T08:47:23.323Z,5.60
2023-01-11T08:49:50.147Z,5.80
2023-01-11T08:52:16.863Z,6.00
2023-01-11T08:54:43.460Z,6.00
2023-01-11T08:57:10.084Z,6.10
2023-01-11T08:59:36.762Z,5.80
2023-01-11T09:02:04.568Z,6.10
2023-01-11T09:04:31.282Z,6.10
2023-01-11T09:06:58.097Z,6.00
2023-01-11T09:09:24.676Z,6.30
2023-01-11T09:11:54.280Z,5.90
2023-01-11T09:14:21.322Z,6.00
2023-01-11T09:16:48.906Z,5.80
2023-01-11T09:19:15.635Z,6.40
2023-01-11T09:21:42.542Z,6.50
2023-01-11T09:24:09.286Z,6.40
2023-01-11T09:26:37.499Z,7.50
2023-01-11T09:29:05.015Z,6.20
2023-01-11T09:31:31.806Z,6.60
2023-01-11T09:33:58.541Z,6.70
2023-01-11T09:36:27.802Z,8.00
2023-01-11T09:38:57.379Z,6.90
2023-01-11T09:41:43.057Z,6.60
2023-01-11T09:46:46.358Z,7.00
2023-01-11T09:49:34.360Z,7.00
2023-01-11T09:52:24.001Z,7.50
2023-01-11T09:54:51.484Z,7.00
2023-01-11T09:57:24.434Z,7.10
2023-01-11T09:59:57.171Z,7.00
2023-01-11T10:02:37.435Z,7.20
2023-01-11T10:05:06.137Z,7.10
2023-01-11T10:07:42.911Z,7.10
2023-01-11T10:18:57.861Z,7.30
2023-01-11T10:21:29.166Z,7.20
2023-01-11T10:24:01.222Z,7.20
2023-01-11T10:26:36.078Z,7.30
2023-01-11T10:29:21.489Z,7.20
2023-01-11T10:32:02.282Z,7.10
2023-01-11T10:34:50.234Z,7.20
2023-01-11T10:37:40.306Z,7.30
2023-01-11T10:40:34.956Z,7.30
2023-01-11T10:43:16.919Z,7.40
2023-01-11T10:45:51.838Z,7.30
2023-01-11T10:48:20.644Z,7.30
2023-01-11T10:50:53.970Z,7.40
2023-01-11T10:53:24.418Z,7.20
2023-01-11T10:55:57.731Z,7.50
2023-01-11T10:58:30.511Z,7.30
2023-01-11T11:01:08.773Z,7.30
2023-01-11T11:03:35.403Z,7.40
2023-01-11T11:06:21.028Z,7.70
2023-01-11T11:08:56.564Z,7.30
2023-01-11T11:11:28.963Z,7.40
2023-01-11T11:14:01.568Z,7.30
2023-01-11T11:16:39.028Z,7.40
2023-01-11T11:19:08.740Z,7.40
2023-01-11T11:21:37.251Z,7.40
2023-01-11T11:24:06.398Z,7.40
2023-01-11T11:26:39.659Z,7.90
2023-01-11T11:29:07.679Z,7.40
2023-01-11T11:31:36.380Z,8.00
2023-01-11T11:34:07.655Z,7.80
2023-01-11T11:36:41.003Z,7.50
2023-01-11T11:39:18.479Z,7.60
2023-01-11T11:41:51.815Z,7.60
2023-01-11T11:44:20.803Z,7.70
2023-01-11T11:46:58.198Z,8.30
2023-01-11T11:49:25.117Z,7.60
2023-01-11T11:51:52.446Z,7.60
2023-01-11T11:54:25.690Z,7.40
2023-01-11T11:56:52.679Z,7.70
2023-01-11T11:59:20.531Z,7.20
2023-01-11T12:01:49.091Z,8.00
2023-01-11T12:04:20.306Z,6.90
2023-01-11T12:06:49.499Z,7.70
2023-01-11T12:09:35.470Z,7.70
2023-01-11T12:12:02.518Z,7.80
2023-01-11T12:16:57.590Z,8.00
2023-01-11T12:19:24.954Z,8.30
2023-01-11T12:21:51.676Z,7.90
2023-01-11T12:24:22.786Z,7.90
2023-01-11T12:27:09.364Z,7.80
2023-01-11T12:29:45.067Z,8.00
2023-01-11T12:32:28.774Z,8.00
2023-01-11T12:35:30.941Z,8.10
2023-01-11T12:38:16.140Z,8.10
2023-01-11T12:40:42.682Z,8.20
2023-01-11T12:43:28.058Z,8.00
2023-01-11T12:45:54.636Z,8.30
2023-01-11T12:48:28.977Z,7.90
2023-01-11T12:51:14.477Z,8.60
2023-01-11T12:53:46.566Z,8.40
2023-01-11T12:56:13.146Z,7.40
2023-01-11T12:58:44.432Z,8.20
2023-01-11T13:01:29.948Z,8.10
2023-01-11T13:04:05.838Z,8.40
2023-01-11T13:06:53.731Z,8.50
2023-01-11T13:09:41.098Z,8.50
2023-01-11T13:12:28.677Z,8.50
2023-01-11T13:15:01.296Z,8.50
2023-01-11T13:17:38.234Z,8.10
2023-01-11T13:20:04.756Z,8.60
2023-01-11T13:22:36.914Z,8.40
2023-01-11T13:27:31.860Z,8.70
2023-01-11T13:30:00.455Z,8.30
2023-01-11T13:32:29.766Z,9.00
2023-01-11T13:35:08.711Z,9.00
2023-01-11T13:37:40.229Z,8.90
2023-01-11T13:40:18.718Z,7.50
2023-01-11T13:42:47.458Z,9.10
2023-01-11T13:45:29.655Z,8.90
2023-01-11T13:47:58.381Z,8.90
2023-01-11T13:53:01.878Z,8.90
2023-01-11T13:55:35.021Z,9.00
2023-01-11T13:58:05.846Z,9.20
2023-01-11T14:00:38.998Z,9.00
2023-01-11T14:03:24.123Z,9.10
2023-01-11T14:05:50.726Z,9.00
2023-01-11T14:08:29.399Z,9.00
2023-01-11T14:11:14.814Z,9.00
2023-01-11T14:14:18.035Z,9.00
2023-01-11T14:16:44.782Z,8.90
2023-01-11T14:19:14.552Z,8.90
2023-01-11T14:21:55.484Z,8.90
2023-01-11T14:24:22.578Z,8.90
2023-01-11T14:26:57.373Z,9.00
2023-01-11T14:29:30.802Z,8.80
2023-01-11T14:32:06.998Z,8.90
2023-01-11T14:34:42.783Z,9.00
2023-01-11T14:37:12.427Z,8.90
2023-01-11T14:39:39.206Z,8.90
2023-01-11T14:42:31.125Z,8.90
2023-01-11T14:45:13.241Z,9.00
2023-01-11T14:47:39.804Z,9.00
2023-01-11T14:50:14.684Z,8.90
2023-01-11T14:52:42.081Z,8.90
2023-01-11T14:55:17.416Z,8.90
2023-01-11T14:57:59.154Z,8.80
2023-01-11T15:00:25.714Z,8.70
2023-01-11T15:03:01.674Z,8.90
2023-01-11T15:05:31.403Z,8.70
2023-01-11T15:08:13.320Z,8.70
2023-01-11T15:10:45.082Z,8.70
2023-01-11T15:13:27.540Z,8.60
2023-01-11T15:16:26.197Z,8.60
2023-01-11T15:18:53.245Z,8.60
2023-01-11T15:21:22.868Z,8.80
2023-01-11T15:23:51.328Z,8.60
2023-01-11T15:26:18.771Z,8.60
2023-01-11T15:28:54.576Z,8.50
2023-01-11T15:31:33.261Z,8.60
2023-01-11T15:34:21.065Z,8.40
2023-01-11T15:36:52.343Z,8.40
2023-01-11T15:39:22.856Z,8.40
2023-01-11T15:42:08.323Z,8.30
2023-01-11T15:44:53.814Z,8.30
2023-01-11T15:47:43.461Z,8.30
2023-01-11T15:50:10.108Z,8.30
2023-01-11T15:52:50.266Z,8.30
2023-01-11T15:55:35.779Z,8.30
2023-01-11T15:58:10.227Z,8.20
2023-01-11T16:00:55.824Z,8.30
2023-01-11T16:03:48.088Z,8.30
2023-01-11T16:06:34.898Z,8.40
2023-01-11T16:09:15.067Z,8.40
2023-01-11T16:11:41.616Z,8.40
2023-01-11T16:14:31.583Z,8.40
2023-01-11T16:16:58.270Z,8.40
2023-01-11T16:19:26.925Z,8.40
2023-01-11T16:21:59.413Z,8.30
2023-01-11T16:24:27.390Z,8.30
2023-01-11T16:26:55.996Z,8.30
2023-01-11T16:29:24.496Z,8.20
2023-01-11T16:31:58.721Z,8.40
2023-01-11T16:34:26.576Z,8.40
2023-01-11T16:36:53.216Z,8.60
2023-01-11T16:39:22.452Z,8.00
2023-01-11T16:42:06.118Z,8.10
2023-01-11T16:44:40.565Z,8.10
2023-01-11T16:47:12.004Z,8.10
2023-01-11T16:49:39.372Z,7.90
2023-01-11T16:52:41.533Z,7.90
2023-01-11T16:55:29.749Z,7.90
2023-01-11T16:57:58.350Z,7.90
2023-01-11T17:00:33.044Z,7.90
2023-01-11T17:03:00.875Z,7.90
2023-01-11T17:05:27.554Z,7.80
2023-01-11T17:07:54.224Z,8.00
2023-01-11T17:10:25.674Z,7.70
2023-01-11T17:13:02.099Z,7.70
2023-01-11T17:15:37.103Z,8.10
2023-01-11T17:18:04.464Z,7.70
2023-01-11T17:20:31.530Z,8.30
2023-01-11T17:22:58.250Z,8.20
2023-01-11T17:25:29.501Z,7.80
2023-01-11T17:28:03.916Z,7.90
2023-01-11T17:30:30.894Z,8.10
2023-01-11T17:32:59.566Z,8.20
2023-01-11T17:35:27.319Z,8.00
2023-01-11T17:38:02.721Z,8.10
2023-01-11T17:40:31.721Z,8.00
2023-01-11T17:43:25.538Z,8.10
2023-01-11T17:45:59.206Z,8.10
2023-01-11T17:48:27.217Z,7.90
2023-01-11T17:50:56.737Z,8.30
2023-01-11T17:53:26.477Z,7.80
2023-01-11T17:56:00.679Z,8.20
2023-01-11T17:58:28.505Z,8.00
2023-01-11T18:01:04.426Z,7.90
2023-01-11T18:03:49.464Z,8.00
2023-01-11T18:06:40.164Z,8.00
2023-01-11T18:09:18.689Z,8.00
2023-01-11T18:11:46.000Z,8.10
2023-01-11T18:14:27.052Z,9.00
2023-01-11T18:16:58.160Z,8.10
2023-01-11T18:19:32.359Z,8.20
2023-01-11T18:21:58.928Z,8.10
2023-01-11T18:24:28.509Z,8.70
2023-01-11T18:27:06.048Z,7.90
2023-01-11T18:29:35.636Z,8.00
2023-01-11T18:32:02.572Z,7.90
2023-01-11T18:34:29.373Z,7.90
2023-01-11T18:36:59.528Z,7.90
2023-01-11T18:39:26.081Z,7.90
2023-01-11T18:42:08.597Z,7.80
2023-01-11T18:44:35.351Z,7.70
2023-01-11T18:47:02.837Z,7.80
2023-01-11T18:49:29.486Z,7.90
2023-01-11T18:51:56.115Z,7.90
2023-01-11T18:54:22.729Z,7.80
2023-01-11T18:56:49.295Z,8.40
2023-01-11T18:59:15.857Z,7.70
2023-01-11T19:01:56.614Z,7.60
2023-01-11T19:04:29.827Z,7.50
2023-01-11T19:06:56.515Z,7.70
2023-01-11T19:09:23.091Z,7.60
2023-01-11T19:11:49.672Z,7.70
2023-01-11T19:14:16.287Z,8.40
2023-01-11T19:16:42.846Z,7.60
2023-01-11T19:19:09.410Z,7.60
2023-01-11T19:21:35.992Z,7.60
2023-01-11T19:24:02.833Z,7.40
2023-01-11T19:26:29.575Z,7.40
2023-01-11T19:28:56.400Z,7.30
2023-01-11T19:31:23.001Z,7.00
2023-01-11T19:33:49.661Z,7.40
2023-01-11T19:36:16.207Z,7.40
2023-01-11T19:38:42.769Z,7.30
2023-01-11T19:41:09.961Z,8.00
2023-01-11T19:43:36.575Z,7.20
2023-01-11T19:46:03.977Z,7.40
2023-01-11T19:48:31.625Z,7.90
2023-01-11T19:51:05.583Z,7.20
2023-01-11T19:53:32.224Z,7.20
2023-01-11T19:56:03.277Z,7.40
2023-01-11T19:58:29.917Z,7.10
2023-01-11T20:00:56.765Z,7.10
2023-01-11T20:03:23.428Z,7.10
2023-01-11T20:05:50.101Z,7.80
2023-01-11T20:08:17.141Z,7.20
2023-01-11T20:10:43.769Z,7.10
2023-01-11T20:13:10.372Z,7.60
2023-01-11T20:15:37.765Z,7.50
2023-01-11T20:18:04.392Z,7.00
2023-01-11T20:20:31.003Z,7.10
2023-01-11T20:22:57.586Z,7.00
2023-01-11T20:25:24.666Z,7.10
2023-01-11T20:27:51.322Z,7.60
2023-01-11T20:30:17.909Z,7.20
2023-01-11T20:32:44.511Z,7.20
2023-01-11T20:35:11.165Z,7.20
2023-01-11T20:37:37.765Z,7.40
2023-01-11T20:40:04.624Z,7.40
2023-01-11T20:42:31.215Z,7.30
2023-01-11T20:44:57.791Z,7.80
2023-01-11T20:47:25.183Z,7.10
2023-01-11T20:49:51.752Z,7.00
2023-01-11T20:52:18.332Z,7.10
2023-01-11T20:54:44.908Z,6.80
2023-01-11T20:57:12.249Z,7.30
2023-01-11T20:59:38.901Z,6.90
2023-01-11T21:02:07.447Z,7.00
2023-01-11T21:04:34.058Z,6.80
2023-01-11T21:07:00.676Z,6.80
2023-01-11T21:09:27.267Z,6.80
2023-01-11T21:11:54.153Z,6.90
2023-01-11T21:14:21.567Z,6.90
2023-01-11T21:16:48.662Z,7.00
2023-01-11T21:19:15.536Z,7.10
2023-01-11T21:21:42.197Z,7.60
2023-01-11T21:24:11.189Z,7.10
2023-01-11T21:26:37.878Z,7.00
2023-01-11T21:29:05.001Z,7.10
2023-01-11T21:31:32.728Z,7.40
2023-01-11T21:33:59.663Z,7.70
2023-01-11T21:36:27.095Z,7.10
2023-01-11T21:38:54.410Z,7.60
2023-01-11T21:41:40.801Z,7.00
2023-01-11T21:44:08.041Z,7.20
2023-01-11T21:46:34.841Z,7.80
2023-01-11T21:49:01.579Z,7.10
2023-01-11T21:51:29.849Z,7.10
2023-01-11T21:53:57.049Z,7.00
2023-01-11T21:56:23.985Z,7.00
2023-01-11T21:58:50.709Z,6.90
2023-01-11T22:01:19.425Z,6.80
2023-01-11T22:03:46.119Z,6.70
2023-01-11T22:06:12.835Z,6.60
2023-01-11T22:08:40.081Z,6.20
2023-01-11T22:11:06.827Z,6.30
2023-01-11T22:13:34.574Z,6.20
2023-01-11T22:16:02.405Z,5.90
2023-01-11T22:18:29.360Z,6.00
2023-01-11T22:20:55.958Z,6.10
2023-01-11T22:23:22.702Z,5.80
2023-01-11T22:25:49.409Z,5.90
2023-01-11T22:28:17.173Z,5.90
2023-01-11T22:30:43.767Z,5.50
2023-01-11T22:35:37.960Z,5.80
2023-01-11T22:38:05.196Z,5.80
2023-01-11T22:40:31.868Z,5.90
2023-01-11T22:42:58.473Z,5.90
2023-01-11T22:45:25.218Z,5.80
2023-01-11T22:47:51.923Z,5.70
2023-01-11T22:50:18.683Z,5.70
2023-01-11T22:52:45.348Z,5.70
2023-01-11T22:55:11.983Z,5.70
2023-01-11T22:57:38.603Z,5.80
2023-01-11T23:00:05.712Z,5.90
2023-01-11T23:02:32.416Z,5.80
2023-01-11T23:04:59.091Z,5.80
2023-01-11T23:07:25.730Z,5.70
2023-01-11T23:09:52.407Z,5.80
2023-01-11T23:12:37.863Z,5.70
2023-01-11T23:15:04.816Z,5.60
2023-01-11T23:17:31.394Z,5.80
2023-01-11T23:19:58.037Z,5.70
2023-01-11T23:22:24.723Z,5.80
2023-01-11T23:24:51.363Z,6.00
2023-01-11T23:27:18.042Z,5.90
2023-01-11T23:29:44.889Z,5.90
2023-01-11T23:32:11.538Z,5.90
2023-01-11T23:34:38.125Z,6.10
2023-01-11T23:37:05.139Z,6.00
2023-01-11T23:39:32.843Z,5.70
2023-01-11T23:42:18.215Z,6.30
2023-01-11T23:44:46.861Z,6.10
2023-01-11T23:47:23.832Z,6.30
2023-01-11T23:49:51.514Z,6.40
2023-01-11T23:52:19.468Z,6.30
2023-01-11T23:54:46.410Z,6.30
2023-01-11T23:57:14.101Z,6.50
2023-01-11T23:59:41.258Z,6.50
